createdAt,value
2023-10-16T00:04:21.570Z,1.23
2023-10-16T00:09:26.912Z,1.25
2023-10-16T00:14:32.113Z,4.35
2023-10-16T00:19:34.406Z,1.33
2023-10-16T00:24:38.459Z,1.38
2023-10-16T00:29:42.747Z,2.15
2023-10-16T00:34:45.887Z,5.00
2023-10-16T00:44:57.122Z,1.10
2023-10-16T00:50:03.775Z,2.75
2023-10-16T00:55:12.209Z,1.77
2023-10-16T01:00:15.146Z,1.30
2023-10-16T01:05:24.836Z,5.28
2023-10-16T01:10:28.294Z,2.42
2023-10-16T01:15:30.407Z,1.48
2023-10-16T01:20:32.451Z,1.23
2023-10-16T01:25:35.799Z,3.22
2023-10-16T01:44:32.997Z,2.85
2023-10-16T01:49:34.967Z,1.33
2023-10-16T01:54:39.238Z,4.18
2023-10-16T01:59:44.337Z,1.50
2023-10-16T02:04:46.525Z,1.45
2023-10-16T02:09:49.006Z,2.67
2023-10-16T02:14:52.365Z,3.03
2023-10-16T02:19:54.364Z,1.75
2023-10-16T02:31:53.792Z,1.88
2023-10-16T02:36:55.958Z,1.92
2023-10-16T02:42:00.662Z,1.85
2023-10-16T02:47:06.676Z,4.40
2023-10-16T02:52:08.723Z,2.63
2023-10-16T02:57:11.540Z,1.40
2023-10-16T03:02:24.141Z,1.63
2023-10-16T03:07:26.454Z,1.42
2023-10-16T03:12:28.640Z,1.13
2023-10-16T03:17:32.088Z,3.28
2023-10-16T03:22:34.212Z,4.57
2023-10-16T03:27:36.265Z,1.35
2023-10-16T03:32:39.674Z,1.20
2023-10-16T03:37:41.699Z,3.20
2023-10-16T03:42:45.230Z,1.95
2023-10-16T03:47:52.847Z,1.60
2023-10-16T03:52:57.857Z,0.77
2023-10-16T03:58:00.108Z,1.95
2023-10-16T04:03:08.282Z,1.77
2023-10-16T04:08:11.740Z,1.42
2023-10-16T04:13:15.565Z,2.08
2023-10-16T04:18:28.384Z,1.63
2023-10-16T04:23:46.652Z,1.52
2023-10-16T04:29:07.265Z,1.80
2023-10-16T04:34:37.008Z,1.58
2023-10-16T04:39:57.692Z,1.73
2023-10-16T04:45:18.172Z,0.80
2023-10-16T04:51:08.314Z,1.15
2023-10-16T04:56:18.130Z,2.78
2023-10-16T05:01:55.442Z,3.60
2023-10-16T05:07:07.866Z,0.95
2023-10-16T05:12:28.501Z,1.48
2023-10-16T05:17:30.542Z,1.08
2023-10-16T05:22:48.952Z,2.13
2023-10-16T05:28:09.639Z,1.73
2023-10-16T05:33:30.067Z,1.63
2023-10-16T05:38:52.300Z,1.50
2023-10-16T05:44:13.622Z,1.45
2023-10-16T05:49:34.594Z,1.15
2023-10-16T05:54:56.723Z,3.10
2023-10-16T06:00:17.771Z,4.72
2023-10-16T06:05:38.680Z,6.20
2023-10-16T06:11:02.261Z,3.85
2023-10-16T06:16:05.032Z,5.97
2023-10-16T06:21:07.319Z,5.82
2023-10-16T06:26:10.998Z,2.35
2023-10-16T06:31:14.534Z,1.08
2023-10-16T06:36:19.070Z,2.30
2023-10-16T06:41:23.544Z,1.92
2023-10-16T06:46:26.418Z,5.85
2023-10-16T06:51:32.137Z,6.38
2023-10-16T06:56:36.401Z,2.30
2023-10-16T07:01:38.854Z,3.30
2023-10-16T07:06:43.375Z,4.55
2023-10-16T07:11:46.811Z,4.03
2023-10-16T07:16:49.592Z,3.42
2023-10-16T07:21:51.686Z,2.58
2023-10-16T07:26:55.035Z,3.85
2023-10-16T07:31:57.040Z,3.03
2023-10-16T07:36:59.544Z,2.83
2023-10-16T07:42:03.571Z,1.38
2023-10-16T07:47:07.306Z,3.15
2023-10-16T07:52:09.446Z,2.55
2023-10-16T07:57:12.805Z,2.33
2023-10-16T08:02:19.217Z,4.85
2023-10-16T08:07:41.232Z,3.05
2023-10-16T08:17:47.100Z,2.85
2023-10-16T08:22:51.572Z,1.58
2023-10-16T08:27:58.477Z,1.58
2023-10-16T08:33:10.896Z,2.45
2023-10-16T08:38:15.761Z,2.83
2023-10-16T08:43:19.344Z,2.70
2023-10-16T08:48:23.120Z,2.47
2023-10-16T08:53:35.218Z,4.03
2023-10-16T08:58:45.578Z,2.53
2023-10-16T09:03:52.133Z,3.47
2023-10-16T09:08:56.141Z,5.07
2023-10-16T09:14:00.969Z,4.40
2023-10-16T09:19:07.949Z,6.18
2023-10-16T09:24:12.948Z,3.50
2023-10-16T09:29:16.402Z,3.13
2023-10-16T09:34:21.600Z,5.88
2023-10-16T09:39:31.342Z,4.35
2023-10-16T09:44:40.707Z,6.93
2023-10-16T09:49:43.603Z,4.60
2023-10-16T10:00:01.751Z,3.33
2023-10-16T10:05:10.922Z,1.50
2023-10-16T10:10:31.465Z,4.63
2023-10-16T10:15:37.333Z,5.90
2023-10-16T10:20:41.858Z,2.63
2023-10-16T10:25:46.321Z,2.13
2023-10-16T10:30:50.838Z,2.55
2023-10-16T10:36:35.570Z,1.98
2023-10-16T10:41:46.816Z,4.88
2023-10-16T10:46:54.706Z,2.70
2023-10-16T10:51:56.965Z,2.95
2023-10-16T10:57:08.691Z,3.10
2023-10-16T11:02:19.918Z,4.30
2023-10-16T11:07:29.747Z,4.60
2023-10-16T11:12:31.900Z,3.22
2023-10-16T11:17:37.057Z,2.35
2023-10-16T11:22:47.972Z,5.13
2023-10-16T11:27:54.796Z,3.88
2023-10-16T11:32:59.128Z,7.20
2023-10-16T11:38:05.407Z,4.63
2023-10-16T11:43:15.350Z,6.20
2023-10-16T11:48:24.680Z,4.82
2023-10-16T11:53:29.626Z,2.85
2023-10-16T11:58:32.441Z,5.72
2023-10-16T12:03:38.822Z,4.55
2023-10-16T12:08:45.825Z,4.35
2023-10-16T12:13:48.241Z,3.85
2023-10-16T12:18:52.949Z,5.72
2023-10-16T12:23:55.055Z,4.55
2023-10-16T12:28:58.290Z,3.85
2023-10-16T12:34:01.764Z,4.25
2023-10-16T12:39:14.416Z,2.67
2023-10-16T12:44:18.210Z,3.08
2023-10-16T12:49:24.597Z,3.47
2023-10-16T12:54:26.968Z,5.05
2023-10-16T12:59:29.421Z,4.97
2023-10-16T13:04:34.703Z,4.50
2023-10-16T13:09:37.052Z,3.28
2023-10-16T13:14:39.148Z,4.85
2023-10-16T13:19:42.501Z,4.65
2023-10-16T13:24:44.576Z,4.43
2023-10-16T13:29:46.925Z,1.92
2023-10-16T13:34:51.811Z,3.30
2023-10-16T13:39:54.042Z,2.92
2023-10-16T13:44:56.097Z,6.65
2023-10-16T13:49:59.479Z,2.67
2023-10-16T13:55:01.505Z,4.57
2023-10-16T14:00:05.070Z,4.72
2023-10-16T14:05:08.804Z,2.58
2023-10-16T14:10:14.554Z,6.88
2023-10-16T14:15:20.919Z,4.55
2023-10-16T14:20:36.935Z,6.32
2023-10-16T14:25:59.006Z,4.65
2023-10-16T14:31:02.863Z,3.15
2023-10-16T14:36:08.501Z,3.28
2023-10-16T14:41:16.591Z,6.75
2023-10-16T14:46:18.851Z,3.00
2023-10-16T14:51:23.316Z,4.00
2023-10-16T14:56:26.347Z,4.15
2023-10-16T15:06:33.019Z,3.53
2023-10-16T15:11:36.256Z,5.55
2023-10-16T15:16:38.379Z,2.80
2023-10-16T15:21:41.984Z,5.75
2023-10-16T15:26:44.108Z,9.45
2023-10-16T15:31:47.153Z,7.97
2023-10-16T15:36:51.022Z,4.40
2023-10-16T15:41:53.265Z,3.20
2023-10-16T15:46:55.496Z,2.42
2023-10-16T15:51:59.013Z,3.25
2023-10-16T15:57:01.217Z,4.13
2023-10-16T16:02:03.328Z,3.53
2023-10-16T16:07:10.090Z,7.50
2023-10-16T16:12:15.222Z,9.82
2023-10-16T16:17:17.362Z,6.10
2023-10-16T16:22:20.867Z,7.13
2023-10-16T16:27:23.166Z,5.80
2023-10-16T16:32:26.607Z,5.07
2023-10-16T16:37:30.228Z,7.32
2023-10-16T16:42:32.248Z,2.45
2023-10-16T16:47:34.274Z,5.22
2023-10-16T16:52:37.626Z,6.65
2023-10-16T16:57:40.470Z,8.82
2023-10-16T17:02:42.751Z,10.75
2023-10-16T17:07:46.348Z,13.00
2023-10-16T17:12:48.688Z,8.73
2023-10-16T17:17:52.810Z,7.97
2023-10-16T17:23:06.055Z,3.85
2023-10-16T17:28:08.641Z,3.17
2023-10-16T17:33:11.864Z,7.45
2023-10-16T17:38:15.586Z,5.25
2023-10-16T17:43:19.919Z,3.58
2023-10-16T17:48:22.171Z,3.53
2023-10-16T17:53:26.469Z,5.90
2023-10-16T17:58:28.762Z,3.70
2023-10-16T18:03:32.824Z,5.13
2023-10-16T18:08:36.480Z,6.00
2023-10-16T18:13:41.937Z,3.72
2023-10-16T18:18:43.987Z,8.10
2023-10-16T18:23:47.418Z,4.20
2023-10-16T18:28:49.460Z,4.57
2023-10-16T18:33:53.462Z,2.63
2023-10-16T18:38:56.941Z,5.82
2023-10-16T18:43:58.953Z,9.55
2023-10-16T18:49:01.128Z,6.80
2023-10-16T18:54:05.062Z,5.07
2023-10-16T18:59:07.925Z,7.53
2023-10-16T19:04:09.920Z,6.70
2023-10-16T19:09:13.483Z,7.18
2023-10-16T19:14:15.696Z,7.53
2023-10-16T19:19:17.771Z,10.73
2023-10-16T19:24:21.283Z,6.15
2023-10-16T19:29:23.351Z,10.70
2023-10-16T19:34:25.676Z,9.85
2023-10-16T19:39:30.145Z,7.88
2023-10-16T19:44:32.241Z,6.05
2023-10-16T19:49:34.313Z,9.88
2023-10-16T19:54:39.172Z,20.02
2023-10-16T19:59:41.192Z,13.45
2023-10-16T20:04:43.293Z,30.05
2023-10-16T20:09:46.972Z,37.50
2023-10-16T20:14:50.125Z,24.17
2023-10-16T20:19:52.800Z,18.20
2023-10-16T20:24:56.429Z,8.77
2023-10-16T20:29:59.114Z,6.00
2023-10-16T20:35:01.797Z,7.22
2023-10-16T20:40:08.365Z,6.97
2023-10-16T20:45:14.450Z,10.93
2023-10-16T20:50:19.628Z,4.72
2023-10-16T20:55:23.822Z,5.43
2023-10-16T21:00:29.149Z,6.43
2023-10-16T21:05:33.822Z,4.50
2023-10-16T21:10:37.635Z,7.45
2023-10-16T21:15:42.706Z,7.63
2023-10-16T21:20:44.783Z,6.30
2023-10-16T21:25:48.192Z,7.38
2023-10-16T21:30:53.935Z,6.05
2023-10-16T21:36:02.666Z,5.18
2023-10-16T21:41:06.545Z,8.02
2023-10-16T21:46:08.659Z,4.50
2023-10-16T21:51:10.741Z,8.35
2023-10-16T21:56:14.110Z,5.68
2023-10-16T22:01:17.750Z,8.27
2023-10-16T22:06:19.993Z,9.00
2023-10-16T22:11:23.360Z,11.00
2023-10-16T22:16:27.002Z,6.28
2023-10-16T22:21:31.497Z,10.48
2023-10-16T22:26:36.364Z,9.93
2023-10-16T22:31:38.971Z,6.32
2023-10-16T22:36:41.257Z,5.32
2023-10-16T22:41:44.654Z,6.78
2023-10-16T22:46:51.097Z,4.32
2023-10-16T22:51:54.226Z,3.97
2023-10-16T22:56:57.632Z,6.50
2023-10-16T23:01:59.732Z,11.00
2023-10-16T23:07:06.798Z,7.03
2023-10-16T23:12:10.628Z,8.68
2023-10-16T23:17:19.179Z,7.38
2023-10-16T23:22:21.606Z,5.90
2023-10-16T23:27:24.993Z,5.10
2023-10-16T23:32:27.028Z,3.50
2023-10-16T23:37:35.171Z,7.00
2023-10-16T23:42:38.526Z,5.60
2023-10-16T23:47:45.832Z,6.65
2023-10-16T23:53:07.910Z,10.15
2023-10-16T23:58:14.233Z,3.47
